sensor_id;sensor_type;location;lat;lon;timestamp;pressure;altitude;pressure_sealevel;temperature;humidity
18022;BME280;9136;48.822;7.966;2023-02-28T00:01:53;101034.00;;;-1.09;100.00
18022;BME280;9136;48.822;7.966;2023-02-28T00:04:41;101045.19;;;-1.09;100.00
18022;BME280;9136;48.822;7.966;2023-02-28T00:07:29;101039.78;;;-1.18;100.00
18022;BME280;9136;48.822;7.966;2023-02-28T00:10:21;101051.31;;;-1.05;100.00
18022;BME280;9136;48.822;7.966;2023-02-28T00:13:09;101065.16;;;-1.02;100.00
18022;BME280;9136;48.822;7.966;2023-02-28T00:16:01;101048.63;;;-1.08;100.00
18022;BME280;9136;48.822;7.966;2023-02-28T00:18:50;101049.53;;;-1.06;100.00
18022;BME280;9136;48.822;7.966;2023-02-28T00:21:37;101047.94;;;-1.03;100.00
18022;BME280;9136;48.822;7.966;2023-02-28T00:24:27;101042.81;;;-1.01;100.00
18022;BME280;9136;48.822;7.966;2023-02-28T00:27:16;101047.09;;;-1.02;100.00
18022;BME280;9136;48.822;7.966;2023-02-28T00:30:07;101038.34;;;-1.07;100.00
18022;BME280;9136;48.822;7.966;2023-02-28T00:32:55;101042.75;;;-1.04;100.00
18022;BME280;9136;48.822;7.966;2023-02-28T00:35:43;101028.88;;;-1.08;100.00
18022;BME280;9136;48.822;7.966;2023-02-28T00:38:32;101056.19;;;-0.84;100.00
18022;BME280;9136;48.822;7.966;2023-02-28T00:41:20;101054.47;;;-0.84;100.00
18022;BME280;9136;48.822;7.966;2023-02-28T00:44:10;101064.06;;;-0.78;100.00
18022;BME280;9136;48.822;7.966;2023-02-28T00:46:58;101053.63;;;-0.83;100.00
18022;BME280;9136;48.822;7.966;2023-02-28T00:49:47;101048.28;;;-0.91;100.00
18022;BME280;9136;48.822;7.966;2023-02-28T00:52:35;101041.25;;;-0.96;100.00
18022;BME280;9136;48.822;7.966;2023-02-28T00:55:22;101059.66;;;-0.82;100.00
18022;BME280;9136;48.822;7.966;2023-02-28T00:58:10;101054.53;;;-0.81;100.00
18022;BME280;9136;48.822;7.966;2023-02-28T01:01:00;101016.47;;;-0.90;100.00
18022;BME280;9136;48.822;7.966;2023-02-28T01:03:48;101045.34;;;-0.71;100.00
18022;BME280;9136;48.822;7.966;2023-02-28T01:06:36;101053.88;;;-0.74;100.00
18022;BME280;9136;48.822;7.966;2023-02-28T01:09:24;101053.03;;;-0.73;100.00
18022;BME280;9136;48.822;7.966;2023-02-28T01:12:12;101037.22;;;-0.87;100.00
18022;BME280;9136;48.822;7.966;2023-02-28T01:15:00;101055.44;;;-0.79;100.00
18022;BME280;9136;48.822;7.966;2023-02-28T01:17:50;101033.66;;;-0.90;100.00
18022;BME280;9136;48.822;7.966;2023-02-28T01:20:38;101052.91;;;-0.77;100.00
18022;BME280;9136;48.822;7.966;2023-02-28T01:23:26;101051.28;;;-0.75;100.00
18022;BME280;9136;48.822;7.966;2023-02-28T01:26:15;101046.97;;;-0.75;100.00
18022;BME280;9136;48.822;7.966;2023-02-28T01:29:03;101048.50;;;-0.81;100.00
18022;BME280;9136;48.822;7.966;2023-02-28T01:31:51;101045.88;;;-0.84;100.00
18022;BME280;9136;48.822;7.966;2023-02-28T01:34:41;101060.72;;;-0.76;100.00
18022;BME280;9136;48.822;7.966;2023-02-28T01:37:29;101054.59;;;-0.79;100.00
18022;BME280;9136;48.822;7.966;2023-02-28T01:40:17;101038.78;;;-0.92;100.00
18022;BME280;9136;48.822;7.966;2023-02-28T01:43:12;101038.97;;;-0.85;100.00
18022;BME280;9136;48.822;7.966;2023-02-28T01:46:06;101044.22;;;-0.81;100.00
18022;BME280;9136;48.822;7.966;2023-02-28T01:48:59;101044.16;;;-0.84;100.00
18022;BME280;9136;48.822;7.966;2023-02-28T01:51:53;101052.00;;;-0.79;100.00
18022;BME280;9136;48.822;7.966;2023-02-28T01:54:42;101045.63;;;-0.94;100.00
18022;BME280;9136;48.822;7.966;2023-02-28T01:57:33;101049.75;;;-0.99;100.00
18022;BME280;9136;48.822;7.966;2023-02-28T02:00:26;101050.25;;;-1.12;100.00
18022;BME280;9136;48.822;7.966;2023-02-28T02:03:16;101041.66;;;-1.12;100.00
18022;BME280;9136;48.822;7.966;2023-02-28T02:06:06;101035.50;;;-1.18;100.00
18022;BME280;9136;48.822;7.966;2023-02-28T02:08:55;101027.50;;;-1.27;100.00
18022;BME280;9136;48.822;7.966;2023-02-28T02:11:44;101044.03;;;-1.20;100.00
18022;BME280;9136;48.822;7.966;2023-02-28T02:14:43;101040.50;;;-1.24;100.00
18022;BME280;9136;48.822;7.966;2023-02-28T02:17:41;101020.38;;;-1.35;100.00
18022;BME280;9136;48.822;7.966;2023-02-28T02:20:51;101021.06;;;-1.42;100.00
18022;BME280;9136;48.822;7.966;2023-02-28T02:27:39;101009.19;;;-1.36;100.00
18022;BME280;9136;48.822;7.966;2023-02-28T02:31:13;101020.34;;;-1.37;100.00
18022;BME280;9136;48.822;7.966;2023-02-28T02:34:31;101038.78;;;-1.23;100.00
18022;BME280;9136;48.822;7.966;2023-02-28T02:37:29;101023.94;;;-1.32;100.00
18022;BME280;9136;48.822;7.966;2023-02-28T02:40:22;101027.41;;;-1.30;100.00
18022;BME280;9136;48.822;7.966;2023-02-28T02:43:15;101022.28;;;-1.30;100.00
18022;BME280;9136;48.822;7.966;2023-02-28T02:46:07;101033.59;;;-1.25;100.00
18022;BME280;9136;48.822;7.966;2023-02-28T02:48:59;101031.81;;;-1.26;100.00
18022;BME280;9136;48.822;7.966;2023-02-28T02:51:51;101030.00;;;-1.30;100.00
18022;BME280;9136;48.822;7.966;2023-02-28T02:54:43;101024.72;;;-1.34;100.00
18022;BME280;9136;48.822;7.966;2023-02-28T02:57:40;101037.81;;;-1.27;100.00
18022;BME280;9136;48.822;7.966;2023-02-28T03:00:33;101033.38;;;-1.32;100.00
18022;BME280;9136;48.822;7.966;2023-02-28T03:03:23;101013.38;;;-1.41;100.00
18022;BME280;9136;48.822;7.966;2023-02-28T03:06:16;101028.91;;;-1.38;100.00
18022;BME280;9136;48.822;7.966;2023-02-28T03:09:05;101041.06;;;-1.34;100.00
18022;BME280;9136;48.822;7.966;2023-02-28T03:11:56;101020.94;;;-1.46;100.00
18022;BME280;9136;48.822;7.966;2023-02-28T03:14:54;101035.69;;;-1.41;100.00
18022;BME280;9136;48.822;7.966;2023-02-28T03:18:00;101008.56;;;-1.59;100.00
18022;BME280;9136;48.822;7.966;2023-02-28T03:20:53;101029.16;;;-1.59;100.00
18022;BME280;9136;48.822;7.966;2023-02-28T03:23:45;100994.84;;;-1.86;100.00
18022;BME280;9136;48.822;7.966;2023-02-28T03:26:41;101016.91;;;-1.66;100.00
18022;BME280;9136;48.822;7.966;2023-02-28T03:29:33;101014.38;;;-1.64;100.00
18022;BME280;9136;48.822;7.966;2023-02-28T03:32:26;101025.19;;;-1.48;100.00
18022;BME280;9136;48.822;7.966;2023-02-28T03:35:19;100999.44;;;-1.76;100.00
18022;BME280;9136;48.822;7.966;2023-02-28T03:38:13;101007.19;;;-1.76;100.00
18022;BME280;9136;48.822;7.966;2023-02-28T03:41:09;101007.66;;;-1.89;100.00
18022;BME280;9136;48.822;7.966;2023-02-28T03:44:07;101030.59;;;-1.68;100.00
18022;BME280;9136;48.822;7.966;2023-02-28T03:47:04;101007.88;;;-1.82;100.00
18022;BME280;9136;48.822;7.966;2023-02-28T03:50:00;101019.19;;;-1.77;100.00
18022;BME280;9136;48.822;7.966;2023-02-28T03:52:51;101010.44;;;-1.83;100.00
18022;BME280;9136;48.822;7.966;2023-02-28T03:55:45;101017.19;;;-1.85;100.00
18022;BME280;9136;48.822;7.966;2023-02-28T03:58:38;101016.66;;;-1.75;100.00
18022;BME280;9136;48.822;7.966;2023-02-28T04:01:34;100997.34;;;-1.89;100.00
18022;BME280;9136;48.822;7.966;2023-02-28T04:04:23;101029.84;;;-1.64;100.00
18022;BME280;9136;48.822;7.966;2023-02-28T04:07:11;101002.25;;;-1.68;100.00
18022;BME280;9136;48.822;7.966;2023-02-28T04:09:59;101021.06;;;-1.42;100.00
18022;BME280;9136;48.822;7.966;2023-02-28T04:12:48;101012.47;;;-1.43;100.00
18022;BME280;9136;48.822;7.966;2023-02-28T04:15:35;101030.03;;;-1.28;100.00
18022;BME280;9136;48.822;7.966;2023-02-28T04:18:25;100996.19;;;-1.40;100.00
18022;BME280;9136;48.822;7.966;2023-02-28T04:21:13;101005.94;;;-1.30;100.00
18022;BME280;9136;48.822;7.966;2023-02-28T04:24:02;101008.63;;;-1.26;100.00
18022;BME280;9136;48.822;7.966;2023-02-28T04:26:51;101021.75;;;-1.17;100.00
18022;BME280;9136;48.822;7.966;2023-02-28T04:29:40;101013.88;;;-1.23;100.00
18022;BME280;9136;48.822;7.966;2023-02-28T04:32:30;101005.31;;;-1.22;100.00
18022;BME280;9136;48.822;7.966;2023-02-28T04:35:20;101035.66;;;-1.11;100.00
18022;BME280;9136;48.822;7.966;2023-02-28T04:38:08;101025.34;;;-1.11;100.00
18022;BME280;9136;48.822;7.966;2023-02-28T04:40:57;101008.06;;;-1.16;100.00
18022;BME280;9136;48.822;7.966;2023-02-28T04:43:45;101020.44;;;-1.02;100.00
18022;BME280;9136;48.822;7.966;2023-02-28T04:46:33;101005.56;;;-1.12;100.00
18022;BME280;9136;48.822;7.966;2023-02-28T04:49:21;101021.19;;;-1.06;100.00
18022;BME280;9136;48.822;7.966;2023-02-28T04:52:10;101010.94;;;-1.05;100.00
18022;BME280;9136;48.822;7.966;2023-02-28T04:54:59;101009.94;;;-1.10;100.00
18022;BME280;9136;48.822;7.966;2023-02-28T04:57:48;101029.34;;;-0.91;100.00
18022;BME280;9136;48.822;7.966;2023-02-28T05:00:35;101019.53;;;-1.04;100.00
18022;BME280;9136;48.822;7.966;2023-02-28T05:03:24;101003.91;;;-1.10;100.00
18022;BME280;9136;48.822;7.966;2023-02-28T05:06:13;101030.03;;;-0.97;100.00
18022;BME280;9136;48.822;7.966;2023-02-28T05:09:03;101025.81;;;-0.95;100.00
18022;BME280;9136;48.822;7.966;2023-02-28T05:11:52;101036.16;;;-0.93;100.00
18022;BME280;9136;48.822;7.966;2023-02-28T05:14:40;101028.19;;;-1.02;100.00
18022;BME280;9136;48.822;7.966;2023-02-28T05:17:28;101027.28;;;-1.04;100.00
18022;BME280;9136;48.822;7.966;2023-02-28T05:20:17;101027.94;;;-1.11;100.00
18022;BME280;9136;48.822;7.966;2023-02-28T05:23:05;101023.31;;;-1.23;100.00
18022;BME280;9136;48.822;7.966;2023-02-28T05:25:55;101047.28;;;-1.26;100.00
18022;BME280;9136;48.822;7.966;2023-02-28T05:28:43;101012.25;;;-1.49;100.00
18022;BME280;9136;48.822;7.966;2023-02-28T05:31:31;101035.66;;;-1.43;100.00
18022;BME280;9136;48.822;7.966;2023-02-28T05:34:20;101036.97;;;-1.56;100.00
18022;BME280;9136;48.822;7.966;2023-02-28T05:37:11;101027.59;;;-1.54;100.00
18022;BME280;9136;48.822;7.966;2023-02-28T05:40:00;101028.69;;;-1.46;100.00
18022;BME280;9136;48.822;7.966;2023-02-28T05:42:49;101017.19;;;-1.57;100.00
18022;BME280;9136;48.822;7.966;2023-02-28T05:45:38;101031.19;;;-1.49;100.00
18022;BME280;9136;48.822;7.966;2023-02-28T05:48:27;101032.38;;;-1.36;100.00
18022;BME280;9136;48.822;7.966;2023-02-28T05:51:15;101034.06;;;-1.38;100.00
18022;BME280;9136;48.822;7.966;2023-02-28T05:54:03;101041.22;;;-1.28;100.00
18022;BME280;9136;48.822;7.966;2023-02-28T05:56:51;101042.19;;;-1.24;100.00
18022;BME280;9136;48.822;7.966;2023-02-28T05:59:41;101026.25;;;-1.41;100.00
18022;BME280;9136;48.822;7.966;2023-02-28T06:02:28;101025.34;;;-1.43;100.00
18022;BME280;9136;48.822;7.966;2023-02-28T06:05:17;101027.03;;;-1.43;100.00
18022;BME280;9136;48.822;7.966;2023-02-28T06:08:05;101031.13;;;-1.50;100.00
18022;BME280;9136;48.822;7.966;2023-02-28T06:10:53;101037.03;;;-1.54;100.00
18022;BME280;9136;48.822;7.966;2023-02-28T06:13:41;101035.09;;;-1.61;100.00
18022;BME280;9136;48.822;7.966;2023-02-28T06:16:33;101050.78;;;-1.54;100.00
18022;BME280;9136;48.822;7.966;2023-02-28T06:19:21;101043.47;;;-1.68;100.00
18022;BME280;9136;48.822;7.966;2023-02-28T06:22:11;101058.53;;;-1.54;100.00
18022;BME280;9136;48.822;7.966;2023-02-28T06:24:59;101065.53;;;-1.48;100.00
18022;BME280;9136;48.822;7.966;2023-02-28T06:27:48;101041.22;;;-1.58;100.00
18022;BME280;9136;48.822;7.966;2023-02-28T06:30:36;101064.81;;;-1.44;100.00
18022;BME280;9136;48.822;7.966;2023-02-28T06:33:27;101055.13;;;-1.53;100.00
18022;BME280;9136;48.822;7.966;2023-02-28T06:36:16;101068.44;;;-1.37;100.00
18022;BME280;9136;48.822;7.966;2023-02-28T06:39:04;101050.28;;;-1.42;100.00
18022;BME280;9136;48.822;7.966;2023-02-28T06:41:53;101060.03;;;-1.32;100.00
18022;BME280;9136;48.822;7.966;2023-02-28T06:44:41;101055.81;;;-1.28;100.00
18022;BME280;9136;48.822;7.966;2023-02-28T06:47:30;101082.94;;;-1.11;100.00
18022;BME280;9136;48.822;7.966;2023-02-28T06:50:20;101073.47;;;-1.12;100.00
18022;BME280;9136;48.822;7.966;2023-02-28T06:53:08;101078.81;;;-1.06;100.00
18022;BME280;9136;48.822;7.966;2023-02-28T06:55:56;101067.69;;;-1.03;100.00
18022;BME280;9136;48.822;7.966;2023-02-28T06:58:46;101081.78;;;-0.91;100.00
18022;BME280;9136;48.822;7.966;2023-02-28T07:01:34;101087.91;;;-0.87;100.00
18022;BME280;9136;48.822;7.966;2023-02-28T07:04:23;101049.88;;;-0.96;100.00
18022;BME280;9136;48.822;7.966;2023-02-28T07:07:13;101067.47;;;-0.79;100.00
18022;BME280;9136;48.822;7.966;2023-02-28T07:10:01;101059.75;;;-0.79;100.00
18022;BME280;9136;48.822;7.966;2023-02-28T07:12:48;101067.91;;;-0.64;100.00
18022;BME280;9136;48.822;7.966;2023-02-28T07:15:37;101089.63;;;-0.56;100.00
18022;BME280;9136;48.822;7.966;2023-02-28T07:18:26;101086.16;;;-0.56;100.00
18022;BME280;9136;48.822;7.966;2023-02-28T07:21:14;101088.06;;;-0.49;100.00
18022;BME280;9136;48.822;7.966;2023-02-28T07:24:04;101087.53;;;-0.38;100.00
18022;BME280;9136;48.822;7.966;2023-02-28T07:26:52;101078.84;;;-0.40;100.00
18022;BME280;9136;48.822;7.966;2023-02-28T07:29:40;101063.19;;;-0.47;100.00
18022;BME280;9136;48.822;7.966;2023-02-28T07:32:28;101065.84;;;-0.44;100.00
18022;BME280;9136;48.822;7.966;2023-02-28T07:35:18;101057.34;;;-0.39;100.00
18022;BME280;9136;48.822;7.966;2023-02-28T07:38:06;101070.38;;;-0.34;100.00
18022;BME280;9136;48.822;7.966;2023-02-28T07:40:56;101105.94;;;-0.24;100.00
18022;BME280;9136;48.822;7.966;2023-02-28T07:43:45;101076.59;;;-0.27;100.00
18022;BME280;9136;48.822;7.966;2023-02-28T07:46:33;101097.38;;;-0.21;100.00
18022;BME280;9136;48.822;7.966;2023-02-28T07:49:22;101106.94;;;-0.19;100.00
18022;BME280;9136;48.822;7.966;2023-02-28T07:52:10;101084.38;;;-0.26;100.00
18022;BME280;9136;48.822;7.966;2023-02-28T07:54:58;101087.19;;;-0.17;100.00
18022;BME280;9136;48.822;7.966;2023-02-28T07:57:47;101102.97;;;-0.05;100.00
18022;BME280;9136;48.822;7.966;2023-02-28T08:00:35;101103.03;;;-0.02;100.00
18022;BME280;9136;48.822;7.966;2023-02-28T08:03:24;101078.06;;;-0.01;100.00
18022;BME280;9136;48.822;7.966;2023-02-28T08:06:16;101079.00;;;0.01;100.00
18022;BME280;9136;48.822;7.966;2023-02-28T08:09:04;101088.16;;;0.24;100.00
18022;BME280;9136;48.822;7.966;2023-02-28T08:11:52;101093.38;;;0.27;100.00
18022;BME280;9136;48.822;7.966;2023-02-28T08:14:41;101103.50;;;0.18;100.00
18022;BME280;9136;48.822;7.966;2023-02-28T08:17:29;101093.25;;;0.21;100.00
18022;BME280;9136;48.822;7.966;2023-02-28T08:20:17;101098.69;;;0.32;100.00
18022;BME280;9136;48.822;7.966;2023-02-28T08:23:05;101118.59;;;0.38;100.00
18022;BME280;9136;48.822;7.966;2023-02-28T08:25:54;101119.09;;;0.21;100.00
18022;BME280;9136;48.822;7.966;2023-02-28T08:28:42;101113.06;;;0.21;100.00
18022;BME280;9136;48.822;7.966;2023-02-28T08:31:33;101112.06;;;0.16;100.00
18022;BME280;9136;48.822;7.966;2023-02-28T08:34:22;101109.38;;;0.11;100.00
18022;BME280;9136;48.822;7.966;2023-02-28T08:37:10;101082.72;;;0.12;100.00
18022;BME280;9136;48.822;7.966;2023-02-28T08:39:58;101096.72;;;0.22;100.00
18022;BME280;9136;48.822;7.966;2023-02-28T08:42:46;101099.34;;;0.23;100.00
18022;BME280;9136;48.822;7.966;2023-02-28T08:45:34;101102.00;;;0.28;100.00
18022;BME280;9136;48.822;7.966;2023-02-28T08:48:24;101092.69;;;0.35;100.00
18022;BME280;9136;48.822;7.966;2023-02-28T08:51:14;101098.13;;;0.47;100.00
18022;BME280;9136;48.822;7.966;2023-02-28T08:54:04;101098.09;;;0.45;100.00
18022;BME280;9136;48.822;7.966;2023-02-28T08:56:52;101113.84;;;0.56;100.00
18022;BME280;9136;48.822;7.966;2023-02-28T08:59:40;101120.00;;;0.61;100.00
18022;BME280;9136;48.822;7.966;2023-02-28T09:02:28;101123.41;;;0.59;100.00
18022;BME280;9136;48.822;7.966;2023-02-28T09:05:18;101130.41;;;0.64;100.00
18022;BME280;9136;48.822;7.966;2023-02-28T09:08:05;101126.88;;;0.59;100.00
18022;BME280;9136;48.822;7.966;2023-02-28T09:10:54;101098.09;;;0.45;100.00
18022;BME280;9136;48.822;7.966;2023-02-28T09:13:44;101115.59;;;0.57;100.00
18022;BME280;9136;48.822;7.966;2023-02-28T09:16:32;101122.13;;;0.79;100.00
18022;BME280;9136;48.822;7.966;2023-02-28T09:19:20;101110.75;;;0.71;100.00
18022;BME280;9136;48.822;7.966;2023-02-28T09:22:10;101105.00;;;0.85;100.00
18022;BME280;9136;48.822;7.966;2023-02-28T09:24:58;101103.16;;;0.78;100.00
18022;BME280;9136;48.822;7.966;2023-02-28T09:27:46;101101.31;;;0.74;100.00
18022;BME280;9136;48.822;7.966;2023-02-28T09:30:34;101113.88;;;0.97;100.00
18022;BME280;9136;48.822;7.966;2023-02-28T09:33:22;101124.97;;;0.91;100.00
18022;BME280;9136;48.822;7.966;2023-02-28T09:36:10;101125.84;;;0.93;100.00
18022;BME280;9136;48.822;7.966;2023-02-28T09:39:00;101117.06;;;0.85;100.00
18022;BME280;9136;48.822;7.966;2023-02-28T09:41:51;101120.69;;;0.93;100.00
18022;BME280;9136;48.822;7.966;2023-02-28T09:44:43;101136.44;;;1.05;100.00
18022;BME280;9136;48.822;7.966;2023-02-28T09:47:34;101147.78;;;1.10;100.00
18022;BME280;9136;48.822;7.966;2023-02-28T09:50:30;101132.91;;;1.00;98.70
18022;BME280;9136;48.822;7.966;2023-02-28T09:53:26;101138.13;;;1.02;97.27
18022;BME280;9136;48.822;7.966;2023-02-28T09:56:21;101137.44;;;1.10;96.76
18022;BME280;9136;48.822;7.966;2023-02-28T09:59:22;101116.88;;;1.17;98.40
18022;BME280;9136;48.822;7.966;2023-02-28T10:02:52;101118.69;;;1.22;97.52
18022;BME280;9136;48.822;7.966;2023-02-28T10:05:50;101140.22;;;1.21;95.04
18022;BME280;9136;48.822;7.966;2023-02-28T10:08:45;101123.00;;;1.23;96.75
18022;BME280;9136;48.822;7.966;2023-02-28T10:11:40;101147.53;;;1.42;94.42
18022;BME280;9136;48.822;7.966;2023-02-28T10:14:30;101131.19;;;1.44;94.13
18022;BME280;9136;48.822;7.966;2023-02-28T10:17:23;101139.09;;;1.52;90.24
18022;BME280;9136;48.822;7.966;2023-02-28T10:20:15;101141.97;;;1.66;93.06
18022;BME280;9136;48.822;7.966;2023-02-28T10:23:11;101153.41;;;1.77;93.47
18022;BME280;9136;48.822;7.966;2023-02-28T10:26:09;101143.09;;;1.82;92.51
18022;BME280;9136;48.822;7.966;2023-02-28T10:29:00;101125.41;;;1.58;91.75
18022;BME280;9136;48.822;7.966;2023-02-28T10:31:49;101151.84;;;1.87;90.80
18022;BME280;9136;48.822;7.966;2023-02-28T10:34:37;101137.94;;;1.83;89.77
18022;BME280;9136;48.822;7.966;2023-02-28T10:37:24;101126.34;;;1.63;90.60
18022;BME280;9136;48.822;7.966;2023-02-28T10:40:28;101137.75;;;1.72;88.63
18022;BME280;9136;48.822;7.966;2023-02-28T10:43:22;101131.97;;;1.87;87.48
18022;BME280;9136;48.822;7.966;2023-02-28T10:46:15;101135.25;;;1.77;87.07
18022;BME280;9136;48.822;7.966;2023-02-28T10:49:17;101154.38;;;1.84;88.94
18022;BME280;9136;48.822;7.966;2023-02-28T10:52:09;101149.34;;;1.93;88.69
18022;BME280;9136;48.822;7.966;2023-02-28T10:55:14;101144.25;;;1.99;85.99
18022;BME280;9136;48.822;7.966;2023-02-28T10:58:18;101148.88;;;2.17;85.13
18022;BME280;9136;48.822;7.966;2023-02-28T11:01:15;101140.25;;;2.18;85.00
18022;BME280;9136;48.822;7.966;2023-02-28T11:04:03;101129.91;;;2.18;82.07
18022;BME280;9136;48.822;7.966;2023-02-28T11:07:06;101151.63;;;2.24;80.24
18022;BME280;9136;48.822;7.966;2023-02-28T11:09:55;101122.75;;;2.03;81.87
18022;BME280;9136;48.822;7.966;2023-02-28T11:12:44;101130.81;;;2.21;80.71
18022;BME280;9136;48.822;7.966;2023-02-28T11:15:33;101157.84;;;2.36;79.31
18022;BME280;9136;48.822;7.966;2023-02-28T11:18:27;101153.66;;;2.44;79.82
18022;BME280;9136;48.822;7.966;2023-02-28T11:21:21;101150.34;;;2.54;78.81
18022;BME280;9136;48.822;7.966;2023-02-28T11:24:17;101126.06;;;2.50;76.25
18022;BME280;9136;48.822;7.966;2023-02-28T11:27:25;101124.41;;;2.54;75.54
18022;BME280;9136;48.822;7.966;2023-02-28T11:30:29;101153.78;;;2.51;74.06
18022;BME280;9136;48.822;7.966;2023-02-28T11:33:27;101117.47;;;2.53;71.65
18022;BME280;9136;48.822;7.966;2023-02-28T11:36:19;101144.75;;;2.88;71.32
18022;BME280;9136;48.822;7.966;2023-02-28T11:39:10;101129.38;;;3.02;69.00
18022;BME280;9136;48.822;7.966;2023-02-28T11:42:19;101122.56;;;3.09;68.95
18022;BME280;9136;48.822;7.966;2023-02-28T11:45:18;101136.56;;;3.25;68.48
18022;BME280;9136;48.822;7.966;2023-02-28T11:48:14;101112.13;;;3.07;68.17
18022;BME280;9136;48.822;7.966;2023-02-28T11:51:14;101131.44;;;3.29;66.28
18022;BME280;9136;48.822;7.966;2023-02-28T11:54:17;101124.94;;;3.71;63.88
18022;BME280;9136;48.822;7.966;2023-02-28T11:57:24;101131.03;;;3.74;64.15
18022;BME280;9136;48.822;7.966;2023-02-28T12:00:28;101128.41;;;3.70;63.00
18022;BME280;9136;48.822;7.966;2023-02-28T12:03:29;101134.81;;;4.09;61.95
18022;BME280;9136;48.822;7.966;2023-02-28T12:06:25;101127.13;;;4.22;62.62
18022;BME280;9136;48.822;7.966;2023-02-28T12:09:32;101128.97;;;4.37;60.68
18022;BME280;9136;48.822;7.966;2023-02-28T12:12:31;101095.91;;;4.24;62.67
18022;BME280;9136;48.822;7.966;2023-02-28T12:15:31;101111.50;;;4.21;64.64
18022;BME280;9136;48.822;7.966;2023-02-28T12:18:40;101118.63;;;4.45;61.78
18022;BME280;9136;48.822;7.966;2023-02-28T12:21:41;101114.44;;;4.73;60.96
18022;BME280;9136;48.822;7.966;2023-02-28T12:24:44;101090.03;;;4.51;60.99
18022;BME280;9136;48.822;7.966;2023-02-28T12:27:37;101101.13;;;4.24;61.14
18022;BME280;9136;48.822;7.966;2023-02-28T12:30:28;101111.44;;;4.12;63.52
18022;BME280;9136;48.822;7.966;2023-02-28T12:33:21;101103.91;;;4.45;63.65
18022;BME280;9136;48.822;7.966;2023-02-28T12:36:12;101099.00;;;5.09;59.83
18022;BME280;9136;48.822;7.966;2023-02-28T12:39:08;101097.19;;;7.17;55.16
18022;BME280;9136;48.822;7.966;2023-02-28T12:42:03;101082.91;;;7.77;51.86
18022;BME280;9136;48.822;7.966;2023-02-28T12:44:54;101084.03;;;7.37;50.34
18022;BME280;9136;48.822;7.966;2023-02-28T12:47:47;101077.41;;;6.45;52.79
18022;BME280;9136;48.822;7.966;2023-02-28T12:50:37;101083.34;;;8.26;49.31
18022;BME280;9136;48.822;7.966;2023-02-28T12:53:30;101078.63;;;11.31;43.97
18022;BME280;9136;48.822;7.966;2023-02-28T12:56:30;101062.69;;;12.44;38.66
18022;BME280;9136;48.822;7.966;2023-02-28T12:59:25;101070.34;;;14.77;36.72
18022;BME280;9136;48.822;7.966;2023-02-28T13:02:33;101046.31;;;10.84;39.10
18022;BME280;9136;48.822;7.966;2023-02-28T13:05:53;101063.56;;;7.94;45.98
18022;BME280;9136;48.822;7.966;2023-02-28T13:09:05;101057.06;;;7.29;48.81
18022;BME280;9136;48.822;7.966;2023-02-28T13:11:58;101066.03;;;6.78;49.42
18022;BME280;9136;48.822;7.966;2023-02-28T13:14:46;101053.59;;;7.23;52.19
18022;BME280;9136;48.822;7.966;2023-02-28T13:17:35;101038.53;;;9.83;42.52
18022;BME280;9136;48.822;7.966;2023-02-28T13:20:25;101052.25;;;7.91;44.78
18022;BME280;9136;48.822;7.966;2023-02-28T13:23:36;101052.13;;;6.67;48.47
18022;BME280;9136;48.822;7.966;2023-02-28T13:29:56;101052.88;;;6.95;49.00
18022;BME280;9136;48.822;7.966;2023-02-28T13:32:44;101051.19;;;6.84;47.29
18022;BME280;9136;48.822;7.966;2023-02-28T13:35:43;101052.13;;;6.68;49.72
18022;BME280;9136;48.822;7.966;2023-02-28T13:38:39;101044.22;;;6.86;48.39
18022;BME280;9136;48.822;7.966;2023-02-28T13:41:55;101055.72;;;5.80;51.43
18022;BME280;9136;48.822;7.966;2023-02-28T13:48:16;101043.59;;;5.91;51.83
18022;BME280;9136;48.822;7.966;2023-02-28T13:51:28;101055.72;;;6.30;52.38
18022;BME280;9136;48.822;7.966;2023-02-28T13:54:37;101050.34;;;6.79;50.19
18022;BME280;9136;48.822;7.966;2023-02-28T13:57:38;101050.34;;;6.75;51.47
18022;BME280;9136;48.822;7.966;2023-02-28T14:00:36;101050.31;;;6.84;50.04
18022;BME280;9136;48.822;7.966;2023-02-28T14:03:42;101048.75;;;6.25;51.56
18022;BME280;9136;48.822;7.966;2023-02-28T14:06:35;101047.72;;;6.75;52.15
18022;BME280;9136;48.822;7.966;2023-02-28T14:09:26;101028.50;;;6.93;51.04
18022;BME280;9136;48.822;7.966;2023-02-28T14:15:55;101045.81;;;7.18;50.53
18022;BME280;9136;48.822;7.966;2023-02-28T14:18:50;101058.91;;;7.15;49.01
18022;BME280;9136;48.822;7.966;2023-02-28T14:21:43;101060.03;;;6.33;49.73
18022;BME280;9136;48.822;7.966;2023-02-28T14:24:59;101038.34;;;6.11;51.28
18022;BME280;9136;48.822;7.966;2023-02-28T14:27:57;101032.25;;;6.18;51.62
18022;BME280;9136;48.822;7.966;2023-02-28T14:31:01;101014.84;;;6.22;51.88
18022;BME280;9136;48.822;7.966;2023-02-28T14:34:05;101033.88;;;6.60;50.50
18022;BME280;9136;48.822;7.966;2023-02-28T14:37:02;101026.97;;;6.40;51.25
18022;BME280;9136;48.822;7.966;2023-02-28T14:39:50;101024.41;;;6.15;50.62
18022;BME280;9136;48.822;7.966;2023-02-28T14:42:38;101026.13;;;6.39;51.07
18022;BME280;9136;48.822;7.966;2023-02-28T14:45:32;101025.31;;;6.19;51.41
18022;BME280;9136;48.822;7.966;2023-02-28T14:48:23;101024.44;;;6.18;52.60
18022;BME280;9136;48.822;7.966;2023-02-28T14:51:18;101009.66;;;5.96;53.02
18022;BME280;9136;48.822;7.966;2023-02-28T14:54:13;101026.16;;;5.87;52.56
18022;BME280;9136;48.822;7.966;2023-02-28T14:57:02;101018.34;;;5.86;52.54
18022;BME280;9136;48.822;7.966;2023-02-28T14:59:59;101036.59;;;6.12;53.78
18022;BME280;9136;48.822;7.966;2023-02-28T15:02:47;101030.53;;;6.00;52.33
18022;BME280;9136;48.822;7.966;2023-02-28T15:05:35;101013.13;;;5.73;52.79
18022;BME280;9136;48.822;7.966;2023-02-28T15:08:25;101021.81;;;5.86;53.53
18022;BME280;9136;48.822;7.966;2023-02-28T15:11:17;101011.38;;;5.77;53.26
18022;BME280;9136;48.822;7.966;2023-02-28T15:14:15;101015.72;;;5.66;53.28
18022;BME280;9136;48.822;7.966;2023-02-28T15:17:08;101011.41;;;5.53;53.24
18022;BME280;9136;48.822;7.966;2023-02-28T15:19:57;101020.97;;;5.51;54.50
18022;BME280;9136;48.822;7.966;2023-02-28T15:22:46;101034.84;;;5.46;53.34
18022;BME280;9136;48.822;7.966;2023-02-28T15:25:37;101030.47;;;5.35;53.78